sensor_id;sensor_type;location;lat;lon;timestamp;P1;durP1;ratioP1;P2;durP2;ratioP2
61460;SDS011;47325;50.506;4.472;2022-11-24T00:03:38;9.50;;;2.20;;
61460;SDS011;47325;50.506;4.472;2022-11-24T00:09:21;10.30;;;2.10;;
61460;SDS011;47325;50.506;4.472;2022-11-24T00:15:05;7.80;;;2.10;;
61460;SDS011;47325;50.506;4.472;2022-11-24T00:20:54;7.50;;;2.00;;
61460;SDS011;47325;50.506;4.472;2022-11-24T00:26:37;8.70;;;2.10;;
61460;SDS011;47325;50.506;4.472;2022-11-24T00:32:20;9.30;;;2.40;;
61460;SDS011;47325;50.506;4.472;2022-11-24T00:38:03;10.00;;;2.40;;
61460;SDS011;47325;50.506;4.472;2022-11-24T00:43:46;10.90;;;2.00;;
61460;SDS011;47325;50.506;4.472;2022-11-24T00:49:30;10.80;;;2.20;;
61460;SDS011;47325;50.506;4.472;2022-11-24T00:55:13;11.20;;;2.20;;
61460;SDS011;47325;50.506;4.472;2022-11-24T01:00:59;12.10;;;3.00;;
61460;SDS011;47325;50.506;4.472;2022-11-24T01:06:43;13.30;;;2.40;;
61460;SDS011;47325;50.506;4.472;2022-11-24T01:12:26;11.40;;;2.20;;
61460;SDS011;47325;50.506;4.472;2022-11-24T01:18:09;11.80;;;3.20;;
61460;SDS011;47325;50.506;4.472;2022-11-24T01:23:52;14.40;;;2.30;;
61460;SDS011;47325;50.506;4.472;2022-11-24T01:29:36;10.30;;;2.80;;
61460;SDS011;47325;50.506;4.472;2022-11-24T01:35:19;12.90;;;2.40;;
61460;SDS011;47325;50.506;4.472;2022-11-24T01:41:05;11.40;;;2.50;;
61460;SDS011;47325;50.506;4.472;2022-11-24T01:46:49;10.60;;;2.50;;
61460;SDS011;47325;50.506;4.472;2022-11-24T01:52:35;10.70;;;2.30;;
61460;SDS011;47325;50.506;4.472;2022-11-24T01:58:21;11.90;;;2.30;;
61460;SDS011;47325;50.506;4.472;2022-11-24T02:04:07;10.50;;;2.30;;
61460;SDS011;47325;50.506;4.472;2022-11-24T02:09:53;9.70;;;2.30;;
61460;SDS011;47325;50.506;4.472;2022-11-24T02:15:38;12.70;;;2.50;;
61460;SDS011;47325;50.506;4.472;2022-11-24T02:21:21;13.90;;;2.60;;
61460;SDS011;47325;50.506;4.472;2022-11-24T02:27:05;11.30;;;3.00;;
61460;SDS011;47325;50.506;4.472;2022-11-24T02:32:48;13.10;;;2.50;;
61460;SDS011;47325;50.506;4.472;2022-11-24T02:38:32;13.50;;;2.30;;
61460;SDS011;47325;50.506;4.472;2022-11-24T02:44:17;15.70;;;2.80;;
61460;SDS011;47325;50.506;4.472;2022-11-24T02:50:02;11.60;;;2.50;;
61460;SDS011;47325;50.506;4.472;2022-11-24T02:55:46;13.40;;;2.70;;
61460;SDS011;47325;50.506;4.472;2022-11-24T03:01:29;8.90;;;2.30;;
61460;SDS011;47325;50.506;4.472;2022-11-24T03:07:14;9.70;;;2.60;;
61460;SDS011;47325;50.506;4.472;2022-11-24T03:12:57;11.40;;;2.60;;
61460;SDS011;47325;50.506;4.472;2022-11-24T03:18:40;11.80;;;2.60;;
61460;SDS011;47325;50.506;4.472;2022-11-24T03:24:23;16.50;;;2.80;;
61460;SDS011;47325;50.506;4.472;2022-11-24T03:30:07;7.90;;;2.60;;
61460;SDS011;47325;50.506;4.472;2022-11-24T03:35:50;11.40;;;2.10;;
61460;SDS011;47325;50.506;4.472;2022-11-24T03:41:33;9.20;;;2.10;;
61460;SDS011;47325;50.506;4.472;2022-11-24T03:47:16;7.80;;;1.80;;
61460;SDS011;47325;50.506;4.472;2022-11-24T03:52:58;9.70;;;1.80;;
61460;SDS011;47325;50.506;4.472;2022-11-24T03:58:42;6.60;;;1.50;;
61460;SDS011;47325;50.506;4.472;2022-11-24T04:04:25;5.90;;;1.60;;
61460;SDS011;47325;50.506;4.472;2022-11-24T04:10:08;6.70;;;1.40;;
61460;SDS011;47325;50.506;4.472;2022-11-24T04:15:52;5.80;;;1.30;;
61460;SDS011;47325;50.506;4.472;2022-11-24T04:21:36;5.80;;;1.30;;
61460;SDS011;47325;50.506;4.472;2022-11-24T04:27:19;5.10;;;1.20;;
61460;SDS011;47325;50.506;4.472;2022-11-24T04:33:02;3.80;;;1.00;;
61460;SDS011;47325;50.506;4.472;2022-11-24T04:38:45;4.60;;;0.90;;
61460;SDS011;47325;50.506;4.472;2022-11-24T04:44:48;3.30;;;1.00;;
61460;SDS011;47325;50.506;4.472;2022-11-24T04:50:31;5.10;;;1.20;;
61460;SDS011;47325;50.506;4.472;2022-11-24T04:56:14;5.00;;;1.30;;
61460;SDS011;47325;50.506;4.472;2022-11-24T05:01:57;4.70;;;0.90;;
61460;SDS011;47325;50.506;4.472;2022-11-24T05:07:41;4.50;;;1.00;;
61460;SDS011;47325;50.506;4.472;2022-11-24T05:13:24;4.90;;;1.10;;
61460;SDS011;47325;50.506;4.472;2022-11-24T05:19:08;3.70;;;1.10;;
61460;SDS011;47325;50.506;4.472;2022-11-24T05:24:52;5.40;;;1.00;;
61460;SDS011;47325;50.506;4.472;2022-11-24T05:30:36;6.30;;;1.20;;
61460;SDS011;47325;50.506;4.472;2022-11-24T05:36:19;5.20;;;1.50;;
61460;SDS011;47325;50.506;4.472;2022-11-24T05:42:03;6.60;;;1.40;;
61460;SDS011;47325;50.506;4.472;2022-11-24T05:47:46;6.50;;;1.30;;
61460;SDS011;47325;50.506;4.472;2022-11-24T05:53:30;5.40;;;1.20;;
61460;SDS011;47325;50.506;4.472;2022-11-24T05:59:12;5.10;;;1.30;;
61460;SDS011;47325;50.506;4.472;2022-11-24T06:04:56;5.80;;;1.10;;
61460;SDS011;47325;50.506;4.472;2022-11-24T06:10:39;8.10;;;1.30;;
61460;SDS011;47325;50.506;4.472;2022-11-24T06:16:22;4.90;;;1.30;;
61460;SDS011;47325;50.506;4.472;2022-11-24T06:22:05;6.10;;;1.30;;
61460;SDS011;47325;50.506;4.472;2022-11-24T06:27:48;4.60;;;1.20;;
61460;SDS011;47325;50.506;4.472;2022-11-24T06:33:35;6.10;;;1.40;;
61460;SDS011;47325;50.506;4.472;2022-11-24T06:39:18;5.90;;;1.40;;
61460;SDS011;47325;50.506;4.472;2022-11-24T06:45:01;5.80;;;1.50;;
61460;SDS011;47325;50.506;4.472;2022-11-24T06:50:51;6.80;;;1.30;;
61460;SDS011;47325;50.506;4.472;2022-11-24T06:56:34;7.10;;;1.50;;
61460;SDS011;47325;50.506;4.472;2022-11-24T07:02:17;4.30;;;1.10;;
61460;SDS011;47325;50.506;4.472;2022-11-24T07:08:01;6.00;;;1.20;;
61460;SDS011;47325;50.506;4.472;2022-11-24T07:13:44;6.00;;;1.30;;
61460;SDS011;47325;50.506;4.472;2022-11-24T07:19:28;6.60;;;1.40;;
61460;SDS011;47325;50.506;4.472;2022-11-24T07:25:11;3.40;;;1.10;;
61460;SDS011;47325;50.506;4.472;2022-11-24T07:30:54;4.80;;;1.40;;
61460;SDS011;47325;50.506;4.472;2022-11-24T07:36:37;5.70;;;1.40;;
61460;SDS011;47325;50.506;4.472;2022-11-24T07:42:23;6.10;;;1.30;;
61460;SDS011;47325;50.506;4.472;2022-11-24T07:48:06;5.20;;;1.60;;
61460;SDS011;47325;50.506;4.472;2022-11-24T07:53:49;6.60;;;1.30;;
61460;SDS011;47325;50.506;4.472;2022-11-24T07:59:32;5.50;;;1.70;;
61460;SDS011;47325;50.506;4.472;2022-11-24T08:05:16;7.50;;;1.50;;
61460;SDS011;47325;50.506;4.472;2022-11-24T08:11:00;4.40;;;1.20;;
61460;SDS011;47325;50.506;4.472;2022-11-24T08:16:45;5.00;;;1.20;;
61460;SDS011;47325;50.506;4.472;2022-11-24T08:22:29;6.10;;;1.40;;
61460;SDS011;47325;50.506;4.472;2022-11-24T08:28:13;5.30;;;1.40;;
61460;SDS011;47325;50.506;4.472;2022-11-24T08:33:57;4.40;;;1.50;;
61460;SDS011;47325;50.506;4.472;2022-11-24T08:39:40;5.50;;;1.80;;
61460;SDS011;47325;50.506;4.472;2022-11-24T08:45:24;6.80;;;1.30;;
61460;SDS011;47325;50.506;4.472;2022-11-24T08:51:21;3.60;;;1.10;;
61460;SDS011;47325;50.506;4.472;2022-11-24T08:57:05;7.50;;;1.30;;
61460;SDS011;47325;50.506;4.472;2022-11-24T09:02:48;4.80;;;1.50;;
61460;SDS011;47325;50.506;4.472;2022-11-24T09:08:34;4.50;;;1.30;;
61460;SDS011;47325;50.506;4.472;2022-11-24T09:14:18;5.70;;;1.30;;
61460;SDS011;47325;50.506;4.472;2022-11-24T09:20:01;4.50;;;1.10;;
61460;SDS011;47325;50.506;4.472;2022-11-24T09:25:44;7.40;;;1.40;;
61460;SDS011;47325;50.506;4.472;2022-11-24T09:31:29;4.40;;;1.10;;
61460;SDS011;47325;50.506;4.472;2022-11-24T09:37:13;4.30;;;1.30;;
61460;SDS011;47325;50.506;4.472;2022-11-24T09:42:57;6.50;;;1.20;;
61460;SDS011;47325;50.506;4.472;2022-11-24T09:48:43;6.30;;;1.40;;
61460;SDS011;47325;50.506;4.472;2022-11-24T09:54:28;5.80;;;1.30;;
61460;SDS011;47325;50.506;4.472;2022-11-24T10:00:13;6.50;;;1.20;;
61460;SDS011;47325;50.506;4.472;2022-11-24T10:05:56;10.20;;;1.90;;
61460;SDS011;47325;50.506;4.472;2022-11-24T10:11:42;6.20;;;1.40;;
61460;SDS011;47325;50.506;4.472;2022-11-24T10:17:28;8.90;;;1.60;;
61460;SDS011;47325;50.506;4.472;2022-11-24T10:23:20;5.60;;;1.50;;
61460;SDS011;47325;50.506;4.472;2022-11-24T10:29:13;4.70;;;1.30;;
61460;SDS011;47325;50.506;4.472;2022-11-24T10:34:59;5.20;;;1.40;;
61460;SDS011;47325;50.506;4.472;2022-11-24T10:40:45;5.10;;;1.40;;
61460;SDS011;47325;50.506;4.472;2022-11-24T10:46:39;6.00;;;1.50;;
61460;SDS011;47325;50.506;4.472;2022-11-24T10:52:23;7.30;;;1.50;;
61460;SDS011;47325;50.506;4.472;2022-11-24T10:58:16;6.60;;;1.40;;
61460;SDS011;47325;50.506;4.472;2022-11-24T11:03:59;8.90;;;1.80;;
61460;SDS011;47325;50.506;4.472;2022-11-24T11:09:42;6.80;;;1.70;;
61460;SDS011;47325;50.506;4.472;2022-11-24T11:15:27;8.10;;;1.30;;
61460;SDS011;47325;50.506;4.472;2022-11-24T11:21:21;7.80;;;1.50;;
61460;SDS011;47325;50.506;4.472;2022-11-24T11:27:03;5.40;;;1.50;;
61460;SDS011;47325;50.506;4.472;2022-11-24T11:32:53;5.80;;;1.40;;
61460;SDS011;47325;50.506;4.472;2022-11-24T11:38:56;5.50;;;1.50;;
61460;SDS011;47325;50.506;4.472;2022-11-24T11:44:41;6.30;;;1.70;;
61460;SDS011;47325;50.506;4.472;2022-11-24T11:50:30;6.00;;;1.60;;
61460;SDS011;47325;50.506;4.472;2022-11-24T11:56:30;5.60;;;1.50;;
61460;SDS011;47325;50.506;4.472;2022-11-24T12:02:21;8.10;;;1.60;;
61460;SDS011;47325;50.506;4.472;2022-11-24T12:08:10;4.90;;;1.20;;
61460;SDS011;47325;50.506;4.472;2022-11-24T12:14:09;5.40;;;1.40;;
61460;SDS011;47325;50.506;4.472;2022-11-24T12:19:59;7.50;;;1.60;;
61460;SDS011;47325;50.506;4.472;2022-11-24T12:25:46;7.10;;;1.50;;
61460;SDS011;47325;50.506;4.472;2022-11-24T12:31:32;7.90;;;1.80;;
61460;SDS011;47325;50.506;4.472;2022-11-24T12:37:23;4.50;;;1.30;;
61460;SDS011;47325;50.506;4.472;2022-11-24T12:43:10;6.00;;;1.60;;
61460;SDS011;47325;50.506;4.472;2022-11-24T12:49:00;6.40;;;2.00;;
61460;SDS011;47325;50.506;4.472;2022-11-24T12:54:46;8.50;;;1.80;;
61460;SDS011;47325;50.506;4.472;2022-11-24T13:00:30;7.10;;;1.90;;
61460;SDS011;47325;50.506;4.472;2022-11-24T13:06:17;6.10;;;1.60;;
61460;SDS011;47325;50.506;4.472;2022-11-24T13:12:11;6.30;;;1.80;;
61460;SDS011;47325;50.506;4.472;2022-11-24T13:17:56;8.20;;;1.60;;
61460;SDS011;47325;50.506;4.472;2022-11-24T13:23:58;10.50;;;1.90;;
61460;SDS011;47325;50.506;4.472;2022-11-24T13:29:41;8.70;;;2.40;;
61460;SDS011;47325;50.506;4.472;2022-11-24T13:35:25;6.50;;;1.80;;
61460;SDS011;47325;50.506;4.472;2022-11-24T13:41:10;6.20;;;1.90;;
61460;SDS011;47325;50.506;4.472;2022-11-24T13:47:27;9.30;;;1.80;;
61460;SDS011;47325;50.506;4.472;2022-11-24T13:53:05;7.10;;;2.10;;
61460;SDS011;47325;50.506;4.472;2022-11-24T13:58:47;8.20;;;2.00;;
61460;SDS011;47325;50.506;4.472;2022-11-24T14:04:31;7.70;;;1.90;;
61460;SDS011;47325;50.506;4.472;2022-11-24T14:10:17;9.90;;;1.90;;
61460;SDS011;47325;50.506;4.472;2022-11-24T14:16:03;7.60;;;1.90;;
61460;SDS011;47325;50.506;4.472;2022-11-24T14:21:47;8.90;;;1.80;;
61460;SDS011;47325;50.506;4.472;2022-11-24T14:27:33;7.60;;;1.90;;
61460;SDS011;47325;50.506;4.472;2022-11-24T14:33:18;6.00;;;1.90;;
61460;SDS011;47325;50.506;4.472;2022-11-24T14:39:03;9.40;;;2.70;;
61460;SDS011;47325;50.506;4.472;2022-11-24T14:44:48;7.80;;;2.30;;
61460;SDS011;47325;50.506;4.472;2022-11-24T14:50:32;6.80;;;2.00;;
61460;SDS011;47325;50.506;4.472;2022-11-24T14:56:25;8.50;;;2.50;;
61460;SDS011;47325;50.506;4.472;2022-11-24T15:08:03;5.30;;;2.20;;
61460;SDS011;47325;50.506;4.472;2022-11-24T15:13:53;6.90;;;2.30;;
61460;SDS011;47325;50.506;4.472;2022-11-24T15:19:38;7.60;;;2.30;;
61460;SDS011;47325;50.506;4.472;2022-11-24T15:25:31;7.30;;;2.20;;
61460;SDS011;47325;50.506;4.472;2022-11-24T15:31:15;7.10;;;2.20;;
61460;SDS011;47325;50.506;4.472;2022-11-24T15:36:58;8.90;;;2.40;;
61460;SDS011;47325;50.506;4.472;2022-11-24T15:42:41;9.30;;;2.40;;
61460;SDS011;47325;50.506;4.472;2022-11-24T15:48:25;7.40;;;2.30;;
61460;SDS011;47325;50.506;4.472;2022-11-24T15:54:09;7.90;;;2.70;;
61460;SDS011;47325;50.506;4.472;2022-11-24T15:59:54;6.90;;;2.20;;
61460;SDS011;47325;50.506;4.472;2022-11-24T16:05:37;7.80;;;2.50;;
61460;SDS011;47325;50.506;4.472;2022-11-24T16:11:21;9.40;;;2.30;;
61460;SDS011;47325;50.506;4.472;2022-11-24T16:17:04;6.70;;;2.20;;
61460;SDS011;47325;50.506;4.472;2022-11-24T16:22:49;7.60;;;2.30;;
61460;SDS011;47325;50.506;4.472;2022-11-24T16:28:33;7.30;;;2.20;;
61460;SDS011;47325;50.506;4.472;2022-11-24T16:34:17;7.00;;;2.40;;
61460;SDS011;47325;50.506;4.472;2022-11-24T16:40:01;8.20;;;2.20;;
61460;SDS011;47325;50.506;4.472;2022-11-24T16:45:44;6.90;;;2.50;;
61460;SDS011;47325;50.506;4.472;2022-11-24T16:51:28;9.20;;;2.70;;
61460;SDS011;47325;50.506;4.472;2022-11-24T16:57:16;9.80;;;3.00;;
61460;SDS011;47325;50.506;4.472;2022-11-24T17:02:59;8.10;;;2.80;;
61460;SDS011;47325;50.506;4.472;2022-11-24T17:08:43;9.50;;;3.50;;
61460;SDS011;47325;50.506;4.472;2022-11-24T17:14:27;7.10;;;3.00;;
61460;SDS011;47325;50.506;4.472;2022-11-24T17:20:11;10.80;;;3.70;;
61460;SDS011;47325;50.506;4.472;2022-11-24T17:25:58;10.20;;;3.60;;
61460;SDS011;47325;50.506;4.472;2022-11-24T17:31:42;11.50;;;3.60;;
61460;SDS011;47325;50.506;4.472;2022-11-24T17:37:25;9.30;;;3.50;;
61460;SDS011;47325;50.506;4.472;2022-11-24T17:43:09;10.40;;;3.10;;
61460;SDS011;47325;50.506;4.472;2022-11-24T17:48:52;8.70;;;3.10;;
61460;SDS011;47325;50.506;4.472;2022-11-24T17:54:35;8.80;;;2.90;;
61460;SDS011;47325;50.506;4.472;2022-11-24T18:00:28;11.60;;;2.90;;
61460;SDS011;47325;50.506;4.472;2022-11-24T18:06:13;9.60;;;3.10;;
61460;SDS011;47325;50.506;4.472;2022-11-24T18:11:56;10.30;;;3.00;;
61460;SDS011;47325;50.506;4.472;2022-11-24T18:17:39;8.40;;;2.90;;
61460;SDS011;47325;50.506;4.472;2022-11-24T18:23:22;9.70;;;2.70;;
61460;SDS011;47325;50.506;4.472;2022-11-24T18:29:05;9.20;;;2.90;;
61460;SDS011;47325;50.506;4.472;2022-11-24T18:34:48;10.60;;;2.80;;
61460;SDS011;47325;50.506;4.472;2022-11-24T18:40:31;8.60;;;2.80;;
61460;SDS011;47325;50.506;4.472;2022-11-24T18:46:15;7.70;;;2.60;;
61460;SDS011;47325;50.506;4.472;2022-11-24T18:51:58;8.40;;;2.70;;
61460;SDS011;47325;50.506;4.472;2022-11-24T18:57:42;6.80;;;2.70;;
61460;SDS011;47325;50.506;4.472;2022-11-24T19:03:25;10.90;;;3.00;;
61460;SDS011;47325;50.506;4.472;2022-11-24T19:09:10;10.60;;;2.80;;
61460;SDS011;47325;50.506;4.472;2022-11-24T19:14:53;12.10;;;2.80;;
61460;SDS011;47325;50.506;4.472;2022-11-24T19:20:36;8.60;;;2.70;;
61460;SDS011;47325;50.506;4.472;2022-11-24T19:26:19;10.40;;;3.00;;
61460;SDS011;47325;50.506;4.472;2022-11-24T19:32:03;8.70;;;3.00;;
61460;SDS011;47325;50.506;4.472;2022-11-24T19:37:46;8.90;;;2.80;;
61460;SDS011;47325;50.506;4.472;2022-11-24T19:43:30;11.60;;;2.40;;
61460;SDS011;47325;50.506;4.472;2022-11-24T19:49:14;7.00;;;2.40;;
61460;SDS011;47325;50.506;4.472;2022-11-24T19:54:57;8.80;;;2.30;;
61460;SDS011;47325;50.506;4.472;2022-11-24T20:00:41;7.60;;;2.60;;
61460;SDS011;47325;50.506;4.472;2022-11-24T20:06:24;9.30;;;2.20;;
61460;SDS011;47325;50.506;4.472;2022-11-24T20:12:08;7.10;;;2.40;;
61460;SDS011;47325;50.506;4.472;2022-11-24T20:17:52;7.10;;;2.30;;
61460;SDS011;47325;50.506;4.472;2022-11-24T20:23:35;8.80;;;2.20;;
61460;SDS011;47325;50.506;4.472;2022-11-24T20:29:19;8.30;;;2.40;;
61460;SDS011;47325;50.506;4.472;2022-11-24T20:35:02;8.60;;;2.50;;
61460;SDS011;47325;50.506;4.472;2022-11-24T20:40:45;8.30;;;2.50;;
61460;SDS011;47325;50.506;4.472;2022-11-24T20:46:29;8.90;;;2.00;;
61460;SDS011;47325;50.506;4.472;2022-11-24T20:52:12;8.20;;;2.10;;
61460;SDS011;47325;50.506;4.472;2022-11-24T20:57:55;8.90;;;2.20;;
61460;SDS011;47325;50.506;4.472;2022-11-24T21:03:38;8.40;;;2.50;;
61460;SDS011;47325;50.506;4.472;2022-11-24T21:09:25;8.00;;;2.40;;
61460;SDS011;47325;50.506;4.472;2022-11-24T21:15:08;6.40;;;2.00;;
61460;SDS011;47325;50.506;4.472;2022-11-24T21:20:52;6.00;;;2.10;;
61460;SDS011;47325;50.506;4.472;2022-11-24T21:26:37;8.30;;;2.10;;
61460;SDS011;47325;50.506;4.472;2022-11-24T21:32:20;8.00;;;2.20;;
61460;SDS011;47325;50.506;4.472;2022-11-24T21:38:03;7.10;;;2.00;;
61460;SDS011;47325;50.506;4.472;2022-11-24T21:43:46;11.40;;;2.50;;
61460;SDS011;47325;50.506;4.472;2022-11-24T21:49:30;8.80;;;2.30;;
61460;SDS011;47325;50.506;4.472;2022-11-24T21:55:13;12.00;;;2.30;;
61460;SDS011;47325;50.506;4.472;2022-11-24T22:00:59;9.70;;;2.50;;
61460;SDS011;47325;50.506;4.472;2022-11-24T22:06:43;8.20;;;2.40;;
61460;SDS011;47325;50.506;4.472;2022-11-24T22:12:27;10.40;;;2.20;;
61460;SDS011;47325;50.506;4.472;2022-11-24T22:18:10;8.40;;;2.40;;
61460;SDS011;47325;50.506;4.472;2022-11-24T22:23:53;9.30;;;2.40;;
61460;SDS011;47325;50.506;4.472;2022-11-24T22:29:37;9.80;;;2.40;;
61460;SDS011;47325;50.506;4.472;2022-11-24T22:35:20;7.60;;;2.50;;
61460;SDS011;47325;50.506;4.472;2022-11-24T22:41:06;8.10;;;2.00;;
61460;SDS011;47325;50.506;4.472;2022-11-24T22:46:49;9.30;;;2.50;;
61460;SDS011;47325;50.506;4.472;2022-11-24T22:52:32;8.50;;;2.20;;
61460;SDS011;47325;50.506;4.472;2022-11-24T22:58:15;8.10;;;2.30;;
61460;SDS011;47325;50.506;4.472;2022-11-24T23:03:59;7.60;;;2.30;;
61460;SDS011;47325;50.506;4.472;2022-11-24T23:09:42;8.40;;;2.30;;
61460;SDS011;47325;50.506;4.472;2022-11-24T23:15:25;10.60;;;2.70;;
61460;SDS011;47325;50.506;4.472;2022-11-24T23:21:09;5.70;;;2.30;;
61460;SDS011;47325;50.506;4.472;2022-11-24T23:26:53;9.10;;;2.20;;
61460;SDS011;47325;50.506;4.472;2022-11-24T23:32:36;8.20;;;2.10;;
61460;SDS011;47325;50.506;4.472;2022-11-24T23:38:19;7.60;;;2.00;;
61460;SDS011;47325;50.506;4.472;2022-11-24T23:44:03;5.90;;;1.70;;
61460;SDS011;47325;50.506;4.472;2022-11-24T23:49:47;8.70;;;2.00;;
61460;SDS011;47325;50.506;4.472;2022-11-24T23:55:30;7.60;;;1.90;;
